Time;durP1;ratioP1;P1;durP2;ratioP2;P2;SDS_P1;SDS_P2;PMS_P1;PMS_P2;Temp;Humidity;BMP_temperature;BMP_pressure;BME280_temperature;BME280_humidity;BME280_pressure;Samples;Min_cycle;Max_cycle;Signal;HPM_P1;HPM_P2
2022/02/14 00:02:04;;;;;;;;;8.33;7.00;;;;;12.05;63.32;99497.50;5049320;28;45274;-80
2022/02/14 00:04:29;;;;;;;;;6.00;6.00;;;;;11.60;63.13;99419.84;5033634;28;45157;-80
2022/02/14 00:06:54;;;;;;;;;4.00;4.00;;;;;11.63;63.28;99422.50;5010677;28;47610;-79
2022/02/14 00:09:20;;;;;;;;;7.50;5.50;;;;;12.06;63.55;99499.25;5027633;28;45108;-80
2022/02/14 00:11:45;;;;;;;;;6.50;5.00;;;;;11.92;63.43;99453.47;5047073;28;45051;-79
2022/02/14 00:14:10;;;;;;;;;6.25;5.25;;;;;12.04;63.61;99472.03;5049937;28;45268;-80
2022/02/14 00:16:36;;;;;;;;;7.25;7.25;;;;;12.11;63.65;99472.06;5050006;28;45602;-80
2022/02/14 00:19:02;;;;;;;;;6.50;5.25;;;;;11.74;63.20;99418.22;5049357;28;44900;-80
2022/02/14 00:21:27;;;;;;;;;5.50;5.00;;;;;11.97;63.55;99442.16;5035505;28;45074;-79
2022/02/14 00:23:53;;;;;;;;;9.00;6.00;;;;;12.07;63.45;99456.25;5027931;28;45060;-79
2022/02/14 00:26:18;;;;;;;;;7.25;6.75;;;;;11.58;63.54;99372.47;5029488;28;45822;-79
2022/02/14 00:28:43;;;;;;;;;6.00;6.00;;;;;12.14;63.52;99471.22;5035038;28;45057;-79
2022/02/14 00:31:09;;;;;;;;;5.00;4.00;;;;;11.99;63.70;99439.50;5037989;28;44982;-79
2022/02/14 00:33:34;;;;;;;;;7.50;5.75;;;;;12.15;63.50;99462.44;5048328;28;45232;-79
2022/02/14 00:36:00;;;;;;;;;6.50;5.25;;;;;11.71;63.40;99385.72;5031200;28;47484;-80
2022/02/14 00:38:25;;;;;;;;;5.50;5.00;;;;;11.95;63.61;99422.81;5049180;28;45061;-79
2022/02/14 00:40:50;;;;;;;;;6.00;5.25;;;;;11.77;63.36;99386.66;5022648;28;45089;-79
2022/02/14 00:43:16;;;;;;;;;10.25;7.75;;;;;11.99;63.41;99428.97;5029568;28;45156;-80
2022/02/14 00:45:41;;;;;;;;;8.00;6.00;;;;;11.70;63.39;99374.31;5029430;28;45565;-80
2022/02/14 00:48:07;;;;;;;;;6.25;5.25;;;;;11.82;63.33;99386.72;5029091;28;45116;-79
2022/02/14 00:50:33;;;;;;;;;6.00;5.50;;;;;12.17;63.23;99450.19;5045534;28;45056;-79
2022/02/14 00:52:59;;;;;;;;;5.75;4.00;;;;;12.19;63.06;99448.44;5063177;28;45520;-79
2022/02/14 00:55:25;;;;;;;;;6.75;5.00;;;;;12.09;62.86;99434.31;5059921;28;46267;-80
2022/02/14 00:57:51;;;;;;;;;5.50;4.50;;;;;12.24;62.81;99451.09;5069543;28;45263;-78
2022/02/14 01:00:18;;;;;;;;;5.50;5.25;;;;;12.23;62.82;99452.88;5061293;28;45088;-79
2022/02/14 01:02:44;;;;;;;;;5.50;4.50;;;;;12.24;62.87;99427.41;5049213;28;44973;-82
2022/02/14 01:05:10;;;;;;;;;6.00;5.00;;;;;12.26;62.66;99428.28;5048441;28;46257;-79
2022/02/14 01:07:36;;;;;;;;;4.25;4.25;;;;;12.26;62.81;99428.28;5048413;28;45705;-81
2022/02/14 01:10:03;;;;;;;;;6.00;4.50;;;;;12.21;62.91;99416.81;5042023;28;45735;-79
2022/02/14 01:12:29;;;;;;;;;5.50;5.00;;;;;12.14;62.76;99406.25;5028390;28;45061;-79
2022/02/14 01:14:55;;;;;;;;;6.00;6.00;;;;;12.30;62.75;99422.16;5040426;28;45177;-79
2022/02/14 01:17:21;;;;;;;;;5.25;4.00;;;;;12.29;62.75;99421.28;5048726;28;45333;-79
2022/02/14 01:19:47;;;;;;;;;5.00;5.00;;;;;12.31;62.81;99423.91;5045950;28;45392;-79
2022/02/14 01:22:13;;;;;;;;;5.25;3.50;;;;;12.16;62.65;99410.66;5027673;28;45199;-80
2022/02/14 01:24:39;;;;;;;;;5.75;4.50;;;;;12.23;62.69;99407.22;5028208;28;45369;-79
2022/02/14 01:27:04;;;;;;;;;6.00;5.00;;;;;12.21;62.76;99401.91;5027855;28;44998;-79
2022/02/14 01:29:31;;;;;;;;;5.50;5.50;;;;;12.37;62.76;99427.50;5029230;28;45181;-80
2022/02/14 01:31:56;;;;;;;;;5.50;4.50;;;;;12.37;62.46;99418.72;5048902;28;45045;-79
2022/02/14 01:34:22;;;;;;;;;5.75;4.75;;;;;12.27;62.57;99399.34;5048715;28;45389;-79
2022/02/14 01:36:48;;;;;;;;;5.75;5.00;;;;;12.26;62.56;99392.28;5048789;28;45204;-79
2022/02/14 01:39:13;;;;;;;;;6.00;5.00;;;;;11.93;62.71;99355.22;5048225;28;45164;-79
2022/02/14 01:41:38;;;;;;;;;5.50;4.75;;;;;12.10;62.81;99370.25;5029432;28;45321;-80
2022/02/14 01:44:04;;;;;;;;;6.00;5.00;;;;;12.23;62.73;99389.66;5028584;28;45486;-79
2022/02/14 01:46:29;;;;;;;;;6.25;5.75;;;;;12.14;63.04;99373.78;5028752;28;45164;-79
2022/02/14 01:48:55;;;;;;;;;5.75;5.00;;;;;12.35;62.66;99409.91;5028432;28;45054;-79
2022/02/14 01:51:22;;;;;;;;;4.00;4.00;;;;;12.11;62.98;99366.72;5060752;28;45345;-80
2022/02/14 01:53:49;;;;;;;;;6.75;5.00;;;;;11.99;63.02;99339.47;5067987;28;45619;-80
2022/02/14 01:56:14;;;;;;;;;4.50;3.75;;;;;11.69;63.15;99287.47;5063946;28;45402;-79
2022/02/14 01:58:39;;;;;;;;;5.00;5.00;;;;;12.17;63.28;99370.25;5048246;28;45030;-79
2022/02/14 02:01:05;;;;;;;;;6.00;5.25;;;;;12.28;63.11;99384.41;5032300;28;45457;-79
2022/02/14 02:03:30;;;;;;;;;4.00;4.00;;;;;12.19;63.33;99363.28;5027674;28;45386;-79
2022/02/14 02:05:57;;;;;;;;;5.67;5.67;;;;;12.31;63.63;99395.81;5028058;28;45184;-81
2022/02/14 02:08:22;;;;;;;;;6.00;6.00;;;;;11.81;63.76;99296.28;5026869;28;45151;-79
2022/02/14 02:10:49;;;;;;;;;6.00;5.75;;;;;12.33;64.05;99388.81;5041699;28;45246;-81
2022/02/14 02:13:17;;;;;;;;;6.00;6.00;;;;;12.34;63.94;99381.78;5048451;28;45343;-80
2022/02/14 02:15:42;;;;;;;;;6.50;5.75;;;;;11.95;64.01;99324.50;5030036;28;45460;-79
2022/02/14 02:18:08;;;;;;;;;4.75;4.75;;;;;12.32;64.26;99381.81;5028342;28;45945;-80
2022/02/14 02:20:34;;;;;;;;;5.75;4.75;;;;;12.08;64.14;99350.94;5037039;28;44992;-80
2022/02/14 02:23:00;;;;;;;;;4.25;4.25;;;;;12.11;64.24;99360.59;5009806;28;47195;-80
2022/02/14 02:25:25;;;;;;;;;5.00;4.75;;;;;11.99;64.60;99318.38;5026698;28;45247;-81
2022/02/14 02:27:51;;;;;;;;;7.25;5.50;;;;;12.30;64.53;99382.66;5028180;28;45272;-80
2022/02/14 02:30:18;;;;;;;;;4.75;4.75;;;;;11.70;64.54;99263.78;5039802;28;45352;-79
2022/02/14 02:32:45;;;;;;;;;4.50;4.00;;;;;11.75;64.66;99283.09;5051420;28;45847;-79
2022/02/14 02:35:11;;;;;;;;;4.50;4.50;;;;;12.13;64.85;99337.78;5051453;28;45141;-79
2022/02/14 02:37:36;;;;;;;;;4.50;4.00;;;;;12.21;65.27;99350.97;5033194;28;45270;-79
2022/02/14 02:40:03;;;;;;;;;7.75;6.00;;;;;12.25;65.22;99342.22;5040649;28;45283;-79
2022/02/14 02:42:28;;;;;;;;;4.50;4.00;;;;;12.26;65.35;99350.13;5032851;28;47222;-79
2022/02/14 02:44:55;;;;;;;;;5.00;5.00;;;;;12.36;65.45;99365.13;5032969;28;45230;-81
2022/02/14 02:47:22;;;;;;;;;6.00;6.00;;;;;12.35;65.42;99381.78;5051552;28;45065;-80
2022/02/14 02:49:48;;;;;;;;;5.00;5.00;;;;;11.83;65.77;99293.72;5045396;28;45221;-79
2022/02/14 02:52:16;;;;;;;;;5.00;5.00;;;;;12.35;65.72;99370.38;5056310;28;47364;-80
2022/02/14 02:54:41;;;;;;;;;4.00;4.00;;;;;12.12;65.88;99321.09;5051411;28;45337;-80
2022/02/14 02:57:07;;;;;;;;;2.50;2.50;;;;;11.81;65.76;99269.97;5033019;28;45207;-79
2022/02/14 02:59:34;;;;;;;;;6.00;5.00;;;;;12.27;65.94;99369.47;5051349;28;45132;-80
2022/02/14 03:02:01;;;;;;;;;5.50;4.25;;;;;12.32;66.13;99363.34;5040524;28;46176;-79
2022/02/14 03:04:26;;;;;;;;;6.25;5.00;;;;;12.33;66.50;99364.22;5025797;28;45535;-79
2022/02/14 03:06:51;;;;;;;;;5.00;5.00;;;;;12.31;66.29;99374.75;5028150;28;45151;-79
2022/02/14 03:09:17;;;;;;;;;3.00;3.00;;;;;12.24;66.77;99358.91;5044610;28;45085;-79
2022/02/14 03:11:44;;;;;;;;;5.00;5.00;;;;;11.43;66.95;99232.00;5040047;28;45523;-79
2022/02/14 03:14:10;;;;;;;;;7.00;7.00;;;;;11.70;67.86;99284.81;5030804;28;45718;-79
2022/02/14 03:16:36;;;;;;;;;5.00;5.00;;;;;12.07;67.73;99348.28;5031246;28;45509;-79
2022/02/14 03:19:03;;;;;;;;;5.50;5.00;;;;;12.15;68.00;99370.28;5030306;28;45232;-79
2022/02/14 03:21:29;;;;;;;;;7.00;5.25;;;;;12.13;68.02;99370.28;5031510;28;45997;-79
2022/02/14 03:23:55;;;;;;;;;4.00;4.00;;;;;11.84;67.92;99349.00;5030511;28;45521;-79
2022/02/14 03:26:21;;;;;;;;;4.00;4.00;;;;;11.93;68.40;99355.22;5030965;28;45104;-79
2022/02/14 03:28:48;;;;;;;;;5.00;5.00;;;;;12.05;68.59;99377.22;5030502;28;45058;-78
2022/02/14 03:31:14;;;;;;;;;3.25;3.25;;;;;12.03;68.68;99373.72;5031338;28;45351;-80
2022/02/14 03:33:41;;;;;;;;;3.75;3.75;;;;;11.99;69.01;99378.94;5030143;28;45011;-79
2022/02/14 03:36:07;;;;;;;;;5.00;5.00;;;;;11.91;69.85;99378.88;5030564;28;45456;-80
2022/02/14 03:38:33;;;;;;;;;5.00;5.00;;;;;11.72;69.91;99362.03;5030042;28;45256;-80
2022/02/14 03:40:58;;;;;;;;;6.00;5.50;;;;;11.56;69.87;99362.78;5037531;28;45826;-79
2022/02/14 03:43:24;;;;;;;;;5.75;5.25;;;;;11.57;70.02;99367.19;5040352;28;45360;-79
2022/02/14 03:45:49;;;;;;;;;7.75;7.75;;;;;11.04;70.38;99265.03;5050624;28;45348;-79
2022/02/14 03:48:14;;;;;;;;;4.50;4.00;;;;;11.34;70.53;99335.44;5049599;28;45091;-79
2022/02/14 03:50:40;;;;;;;;;4.00;4.00;;;;;11.71;69.73;99412.91;5050291;28;46008;-79
2022/02/14 03:53:06;;;;;;;;;4.00;4.00;;;;;11.62;70.17;99404.94;5049936;28;45044;-79
2022/02/14 03:55:32;;;;;;;;;4.25;4.00;;;;;11.26;70.53;99359.00;5050180;28;45006;-79
2022/02/14 03:57:57;;;;;;;;;4.00;4.00;;;;;11.63;70.11;99427.78;5049784;28;45089;-83
2022/02/14 04:00:24;;;;;;;;;4.25;3.50;;;;;11.60;70.26;99430.38;5046667;28;46050;-80
2022/02/14 04:02:49;;;;;;;;;3.75;3.75;;;;;11.58;70.70;99437.38;5029616;28;45168;-80
2022/02/14 04:05:16;;;;;;;;;3.50;3.00;;;;;11.24;70.18;99392.31;5030045;28;45349;-79
2022/02/14 04:07:42;;;;;;;;;3.50;3.50;;;;;11.57;71.70;99509.28;5030116;28;45089;-79
2022/02/14 04:10:09;;;;;;;;;0.00;0.00;;;;;11.23;69.72;99465.94;5031418;28;45820;-79
2022/02/14 04:12:35;;;;;;;;;0.00;0.00;;;;;10.81;68.94;99428.63;5050302;28;45589;-79
2022/02/14 04:15:01;;;;;;;;;0.00;0.00;;;;;11.04;70.26;99493.78;5050104;28;45275;-79
2022/02/14 04:17:26;;;;;;;;;0.00;0.00;;;;;10.89;70.92;99498.84;5049688;28;45242;-79
2022/02/14 04:19:53;;;;;;;;;0.00;0.00;;;;;10.89;69.87;99511.97;5031918;28;46335;-79
2022/02/14 04:22:19;;;;;;;;;0.00;0.00;;;;;10.80;69.46;99511.00;5022332;28;45581;-79
2022/02/14 04:24:44;;;;;;;;;0.00;0.00;;;;;10.13;69.53;99422.41;5025602;28;45560;-79
2022/02/14 04:27:09;;;;;;;;;0.00;0.00;;;;;10.19;69.47;99425.13;5020030;28;45330;-80
2022/02/14 04:29:35;;;;;;;;;0.00;0.00;;;;;10.57;69.59;99504.50;5044573;28;45710;-79
2022/02/14 04:32:00;;;;;;;;;0.00;0.00;;;;;10.58;69.40;99519.41;5048446;28;45152;-79
2022/02/14 04:34:25;;;;;;;;;0.00;0.00;;;;;10.20;69.32;99466.28;5039549;28;45743;-80
2022/02/14 04:36:52;;;;;;;;;0.00;0.00;;;;;10.49;69.45;99528.06;5042797;28;45622;-80
2022/02/14 04:39:18;;;;;;;;;0.00;0.00;;;;;10.01;69.34;99457.25;5036784;28;45746;-80
2022/02/14 04:41:44;;;;;;;;;0.00;0.00;;;;;9.94;69.19;99450.09;5029579;28;45368;-79
2022/02/14 04:44:09;;;;;;;;;0.00;0.00;;;;;10.17;69.20;99514.38;5030809;28;44908;-79
2022/02/14 04:46:35;;;;;;;;;0.00;0.00;;;;;10.06;69.15;99502.81;5029374;28;45276;-80
2022/02/14 04:49:01;;;;;;;;;0.00;0.00;;;;;10.22;69.16;99528.47;5030074;28;45685;-80
2022/02/14 04:51:27;;;;;;;;;0.00;0.00;;;;;10.15;69.45;99539.75;5057487;28;45065;-78
2022/02/14 04:53:53;;;;;;;;;0.00;0.00;;;;;9.83;69.58;99490.19;5068634;28;45720;-80
2022/02/14 04:56:19;;;;;;;;;0.00;0.00;;;;;10.18;69.61;99565.13;5069531;28;45060;-79
2022/02/14 04:58:45;;;;;;;;;0.00;0.00;;;;;9.99;69.55;99546.44;5058567;28;45888;-79
2022/02/14 05:01:10;;;;;;;;;0.00;0.00;;;;;10.08;69.58;99579.84;5049053;28;45231;-79
2022/02/14 05:03:36;;;;;;;;;0.00;0.00;;;;;9.74;69.66;99529.38;5049676;28;45068;-79
2022/02/14 05:06:02;;;;;;;;;0.00;0.00;;;;;9.55;69.89;99508.91;5047957;28;45335;-80
2022/02/14 05:08:27;;;;;;;;;0.00;0.00;;;;;9.76;70.20;99553.91;5041200;28;45256;-79
2022/02/14 05:10:52;;;;;;;;;0.00;0.00;;;;;9.02;70.07;99446.72;5029188;28;45192;-79
2022/02/14 05:13:17;;;;;;;;;0.00;0.00;;;;;9.99;70.28;99624.31;5028767;28;45120;-79
2022/02/14 05:15:43;;;;;;;;;0.00;0.00;;;;;9.52;70.08;99553.44;5029048;28;45169;-80
2022/02/14 05:18:08;;;;;;;;;0.00;0.00;;;;;9.39;69.94;99540.94;5032750;28;45731;-80
2022/02/14 05:20:33;;;;;;;;;0.00;0.00;;;;;9.73;69.96;99624.69;5049431;28;45074;-79
2022/02/14 05:22:59;;;;;;;;;0.00;0.00;;;;;9.68;69.67;99623.72;5030296;28;45059;-79
2022/02/14 05:25:24;;;;;;;;;0.00;0.00;;;;;9.64;69.83;99621.88;5041317;28;44984;-79
2022/02/14 05:27:49;;;;;;;;;0.00;0.00;;;;;9.56;70.23;99621.75;5030475;28;46112;-80
2022/02/14 05:30:15;;;;;;;;;0.00;0.00;;;;;9.44;70.19;99612.72;5048604;28;45204;-79
2022/02/14 05:32:40;;;;;;;;;0.00;0.00;;;;;9.43;69.97;99614.47;5022131;28;45252;-78
2022/02/14 05:35:06;;;;;;;;;1.00;0.00;;;;;8.94;70.27;99539.13;5028596;28;45030;-80
2022/02/14 05:37:32;;;;;;;;;0.00;0.00;;;;;9.57;70.48;99659.34;5048644;28;46338;-82
2022/02/14 05:39:57;;;;;;;;;0.00;0.00;;;;;9.55;70.56;99668.91;5048710;28;45077;-80
2022/02/14 05:42:23;;;;;;;;;0.00;0.00;;;;;9.47;70.48;99662.63;5040858;28;45196;-81
2022/02/14 05:44:49;;;;;;;;;0.00;0.00;;;;;8.85;70.26;99550.28;5032701;28;45171;-81
2022/02/14 05:47:14;;;;;;;;;0.50;0.00;;;;;9.47;70.29;99676.63;5048404;28;45316;-81
2022/02/14 05:49:40;;;;;;;;;0.00;0.00;;;;;9.44;70.33;99680.91;5030435;28;45088;-84
2022/02/14 05:52:06;;;;;;;;;0.00;0.00;;;;;9.01;70.39;99622.25;5049578;28;45308;-80
2022/02/14 05:54:32;;;;;;;;;0.00;0.00;;;;;9.30;70.40;99678.84;5062053;28;45459;-81
2022/02/14 05:56:58;;;;;;;;;1.00;0.00;;;;;9.26;70.39;99684.91;5030113;28;47277;-80
2022/02/14 05:59:24;;;;;;;;;0.00;0.00;;;;;9.30;70.34;99685.84;5047770;28;45487;-79
2022/02/14 06:01:49;;;;;;;;;0.00;0.00;;;;;8.98;70.46;99636.19;5047343;28;45030;-80
2022/02/14 06:04:15;;;;;;;;;0.00;0.00;;;;;9.20;70.39;99691.72;5044622;28;45175;-80
2022/02/14 06:06:40;;;;;;;;;0.00;0.00;;;;;9.06;70.46;99662.56;5048364;28;46885;-79
2022/02/14 06:09:05;;;;;;;;;0.00;0.00;;;;;8.92;70.65;99645.66;5029795;28;51805;-81
2022/02/14 06:11:31;;;;;;;;;0.00;0.00;;;;;9.18;70.68;99704.81;5029267;28;45006;-79
2022/02/14 06:13:56;;;;;;;;;0.00;0.00;;;;;8.75;70.41;99642.63;5030134;28;45140;-79
2022/02/14 06:16:21;;;;;;;;;0.00;0.00;;;;;9.15;70.64;99719.56;5047942;28;45395;-79
2022/02/14 06:18:47;;;;;;;;;0.00;0.00;;;;;9.11;70.68;99717.72;5047821;28;45061;-79
2022/02/14 06:21:12;;;;;;;;;0.50;0.00;;;;;8.91;70.61;99699.78;5037829;28;45514;-79
2022/02/14 06:23:38;;;;;;;;;0.00;0.00;;;;;8.79;70.69;99697.75;5032441;28;45591;-80
2022/02/14 06:26:04;;;;;;;;;0.00;0.00;;;;;8.56;70.70;99659.63;5044752;28;45645;-81
2022/02/14 06:28:30;;;;;;;;;0.00;0.00;;;;;8.55;70.76;99659.59;5048427;28;45079;-79
2022/02/14 06:30:55;;;;;;;;;0.50;0.00;;;;;8.38;71.01;99633.88;5047515;28;45046;-80
2022/02/14 06:33:21;;;;;;;;;1.00;0.00;;;;;8.78;71.01;99710.81;5048452;28;45033;-79
2022/02/14 06:35:46;;;;;;;;;0.00;0.00;;;;;8.98;70.83;99751.50;5047106;28;45427;-80
2022/02/14 06:38:11;;;;;;;;;0.75;0.00;;;;;8.47;70.76;99668.16;5044477;28;45148;-79
2022/02/14 06:40:37;;;;;;;;;1.00;0.00;;;;;8.67;71.06;99699.16;5028277;28;45229;-84
2022/02/14 06:43:02;;;;;;;;;0.50;0.50;;;;;7.76;71.05;99549.34;5027843;28;45165;-81
2022/02/14 06:45:28;;;;;;;;;0.50;0.00;;;;;8.84;70.97;99731.06;5031500;28;47212;-80
2022/02/14 06:47:53;;;;;;;;;0.00;0.00;;;;;8.64;71.05;99702.63;5029115;28;45373;-80
2022/02/14 06:50:19;;;;;;;;;1.00;0.00;;;;;8.40;71.07;99679.31;5041680;28;45238;-83
2022/02/14 06:52:45;;;;;;;;;0.00;0.00;;;;;8.87;71.30;99754.72;5042900;28;45161;-80
2022/02/14 06:55:10;;;;;;;;;1.00;1.00;;;;;8.52;71.09;99725.84;5030653;28;45794;-80
2022/02/14 06:57:36;;;;;;;;;0.00;0.00;;;;;8.68;71.19;99749.00;5040493;28;45146;-79
2022/02/14 07:00:04;;;;;;;;;0.00;0.00;;;;;8.89;71.18;99774.84;5035916;28;44947;-78
2022/02/14 07:02:30;;;;;;;;;1.00;0.00;;;;;8.89;70.95;99790.59;5033708;28;45192;-79
2022/02/14 07:04:55;;;;;;;;;1.00;0.00;;;;;8.69;70.96;99756.00;5028542;28;45779;-79
2022/02/14 07:07:21;;;;;;;;;0.00;0.00;;;;;8.81;71.18;99791.22;5027600;28;45244;-78
2022/02/14 07:09:47;;;;;;;;;0.00;0.00;;;;;8.71;71.01;99779.59;5028929;28;45194;-78
2022/02/14 07:12:12;;;;;;;;;0.00;0.00;;;;;8.82;71.05;99808.72;5033833;28;45146;-78
2022/02/14 07:14:37;;;;;;;;;1.33;0.33;;;;;8.71;71.15;99790.09;5027631;28;45787;-79
2022/02/14 07:17:03;;;;;;;;;0.50;0.50;;;;;8.21;71.02;99700.56;5030217;28;45100;-81
2022/02/14 07:19:29;;;;;;;;;0.00;0.00;;;;;8.36;71.04;99739.34;5046544;28;45257;-80
2022/02/14 07:21:54;;;;;;;;;1.00;1.00;;;;;8.58;70.96;99780.16;5043543;28;45325;-79
2022/02/14 07:24:19;;;;;;;;;1.75;1.25;;;;;8.56;70.95;99785.31;5021753;28;45585;-79
2022/02/14 07:26:45;;;;;;;;;0.50;0.50;;;;;8.47;70.84;99777.22;5022976;28;45596;-80
2022/02/14 07:29:10;;;;;;;;;0.50;0.50;;;;;8.23;71.23;99739.03;5017482;28;45746;-80
2022/02/14 07:31:36;;;;;;;;;1.00;1.00;;;;;8.16;70.71;99731.84;5032757;28;45427;-80
2022/02/14 07:34:01;;;;;;;;;1.75;1.00;;;;;8.27;71.16;99763.53;5027480;28;47022;-81
2022/02/14 07:36:29;;;;;;;;;1.00;0.00;;;;;8.18;70.88;99732.78;5040485;28;46414;-79
2022/02/14 07:38:55;;;;;;;;;0.00;0.00;;;;;8.51;71.03;99784.31;5050623;28;45123;-80
2022/02/14 07:41:21;;;;;;;;;1.25;0.25;;;;;8.57;71.23;99796.69;5050736;28;45201;-81
2022/02/14 07:43:46;;;;;;;;;2.00;2.00;;;;;8.52;70.87;99788.69;5050380;28;45896;-82
2022/02/14 07:46:11;;;;;;;;;3.00;2.00;;;;;8.87;71.09;99867.41;5038458;28;45071;-82
2022/02/14 07:48:38;;;;;;;;;1.50;1.50;;;;;8.41;70.60;99774.44;5042775;28;44956;-81
2022/02/14 07:51:04;;;;;;;;;0.75;0.75;;;;;8.04;70.75;99735.88;5047683;28;45193;-84
2022/02/14 07:53:29;;;;;;;;;1.00;1.00;;;;;8.00;70.90;99712.22;5031976;28;45796;-84
2022/02/14 07:55:55;;;;;;;;;0.75;0.00;;;;;8.99;70.68;99855.47;5030246;28;44983;-80
2022/02/14 07:58:20;;;;;;;;;2.00;1.00;;;;;9.10;70.41;99862.75;5038500;28;44970;-80
2022/02/14 08:00:45;;;;;;;;;0.25;0.00;;;;;8.83;70.58;99808.78;5025312;28;45379;-82
2022/02/14 08:03:11;;;;;;;;;1.00;1.00;;;;;8.84;70.32;99796.56;5045439;28;53507;-78
2022/02/14 08:05:36;;;;;;;;;0.50;0.50;;;;;9.27;70.21;99872.81;5049350;28;45064;-80
2022/02/14 08:08:02;;;;;;;;;2.00;1.00;;;;;9.31;69.96;99879.03;5038273;28;45037;-79
2022/02/14 08:10:28;;;;;;;;;2.00;1.00;;;;;9.07;69.96;99834.72;5047996;28;45291;-78
2022/02/14 08:12:53;;;;;;;;;2.00;1.00;;;;;9.27;69.88;99859.72;5032620;28;45431;-82
2022/02/14 08:15:19;;;;;;;;;3.25;1.00;;;;;8.45;69.70;99719.59;5029696;28;45341;-79
2022/02/14 08:17:44;;;;;;;;;2.25;1.50;;;;;9.54;69.88;99900.59;5030221;28;45440;-80
2022/02/14 08:20:10;;;;;;;;;2.00;1.75;;;;;9.03;69.58;99799.69;5040329;28;45288;-80
2022/02/14 08:22:35;;;;;;;;;1.00;0.00;;;;;9.48;69.50;99872.47;5035543;28;45821;-80
2022/02/14 08:25:01;;;;;;;;;1.00;1.00;;;;;8.87;69.12;99775.69;5047844;28;45341;-79
2022/02/14 08:27:26;;;;;;;;;3.00;2.25;;;;;9.08;69.11;99818.16;5048771;28;45315;-80
2022/02/14 08:29:52;;;;;;;;;2.00;2.00;;;;;9.08;69.54;99817.28;5047920;28;45063;-81
2022/02/14 08:32:17;;;;;;;;;2.75;2.00;;;;;9.62;69.32;99921.78;5030878;28;47533;-80
2022/02/14 08:34:43;;;;;;;;;1.00;1.00;;;;;8.68;69.46;99755.97;5048683;28;45251;-81
2022/02/14 08:37:09;;;;;;;;;2.00;1.00;;;;;9.08;69.42;99827.75;5030433;28;45200;-83
2022/02/14 08:39:34;;;;;;;;;1.50;1.50;;;;;9.51;69.45;99896.16;5029743;28;45100;-81
2022/02/14 08:42:09;;;;;;;;;2.00;1.75;;;;;8.47;69.22;99712.66;5028824;28;45438;-89
2022/02/14 08:44:34;;;;;;;;;0.75;0.00;;;;;9.72;69.77;99887.94;5030661;28;45455;-80
2022/02/14 08:47:00;;;;;;;;;2.00;2.00;;;;;9.72;69.35;99852.94;5029176;28;45195;-81
2022/02/14 08:49:27;;;;;;;;;1.50;1.00;;;;;10.26;69.15;99918.09;5030566;28;45064;-79
2022/02/14 08:51:53;;;;;;;;;1.00;1.00;;;;;9.93;68.44;99839.41;5064077;28;45730;-80
2022/02/14 08:54:18;;;;;;;;;0.00;0.00;;;;;10.49;68.58;99924.75;5069282;28;45197;-80
2022/02/14 08:56:44;;;;;;;;;1.00;1.00;;;;;10.21;68.25;99852.31;5037330;28;45371;-84
2022/02/14 08:59:13;;;;;;;;;2.00;2.00;;;;;10.57;68.14;99915.25;5048117;28;45160;-80
2022/02/14 09:01:38;;;;;;;;;2.00;1.00;;;;;10.59;67.96;99915.31;5049861;28;45261;-80
2022/02/14 09:04:04;;;;;;;;;2.00;1.00;;;;;10.68;67.88;99919.84;5048361;28;45055;-81
2022/02/14 09:06:29;;;;;;;;;1.75;1.00;;;;;9.59;67.60;99723.19;5049799;28;45244;-81
2022/02/14 09:08:54;;;;;;;;;2.00;2.00;;;;;10.78;67.38;99920.06;5049409;28;45023;-81
2022/02/14 09:11:20;;;;;;;;;1.00;1.00;;;;;9.75;67.50;99730.56;5031348;28;46067;-80
2022/02/14 09:13:45;;;;;;;;;2.00;1.00;;;;;10.91;67.61;99908.06;5032919;28;45157;-81
2022/02/14 09:16:11;;;;;;;;;1.00;1.00;;;;;10.54;67.34;99839.03;5049493;28;45171;-80
2022/02/14 09:18:38;;;;;;;;;2.00;2.00;;;;;10.79;66.95;99885.06;5049242;28;45098;-80
2022/02/14 09:21:05;;;;;;;;;1.00;1.00;;;;;11.07;67.08;99920.66;5039593;28;45475;-84
2022/02/14 09:23:31;;;;;;;;;2.50;1.00;;;;;11.06;66.63;99929.41;5010484;28;45759;-81
2022/02/14 09:25:56;;;;;;;;;2.00;2.00;;;;;11.02;66.50;99908.28;5023113;28;45484;-80
2022/02/14 09:28:22;;;;;;;;;1.00;1.00;;;;;10.88;66.13;99901.84;5029933;28;45345;-80
2022/02/14 09:30:48;;;;;;;;;2.00;2.00;;;;;10.95;66.31;99922.19;5027882;28;45788;-81
2022/02/14 09:33:13;;;;;;;;;2.50;1.75;;;;;10.68;66.36;99876.06;5023355;28;45641;-83
2022/02/14 09:35:39;;;;;;;;;2.75;2.50;;;;;10.87;66.52;99900.09;5010689;28;45506;-79
2022/02/14 09:38:05;;;;;;;;;1.50;1.00;;;;;10.49;66.17;99831.88;5010748;28;45569;-79
2022/02/14 09:40:32;;;;;;;;;1.25;1.00;;;;;11.06;66.10;99925.88;5011478;28;45471;-81
2022/02/14 09:43:02;;;;;;;;;0.25;0.25;;;;;10.89;66.01;99888.78;5009731;28;45984;-80
2022/02/14 09:45:30;;;;;;;;;3.00;1.00;;;;;11.12;65.41;99920.75;5013311;28;45543;-80
2022/02/14 09:47:58;;;;;;;;;2.00;1.00;;;;;11.17;65.60;99940.13;5009939;28;45368;-80
2022/02/14 09:50:25;;;;;;;;;0.00;0.00;;;;;11.24;65.24;99946.41;5027735;28;45550;-80
2022/02/14 09:52:51;;;;;;;;;1.00;1.00;;;;;11.27;64.75;99936.81;5047898;28;45229;-79
2022/02/14 09:55:17;;;;;;;;;2.00;1.00;;;;;11.11;64.59;99933.00;5031331;28;45423;-79
2022/02/14 09:57:42;;;;;;;;;3.00;1.00;;;;;11.27;64.19;99942.06;5031074;28;45384;-79
2022/02/14 10:00:09;;;;;;;;;3.00;2.00;;;;;10.76;64.47;99855.22;5038316;28;45546;-80
2022/02/14 10:02:35;;;;;;;;;3.00;2.00;;;;;11.14;64.50;99900.63;5048632;28;45404;-80
2022/02/14 10:05:09;;;;;;;;;3.25;2.00;;;;;11.57;64.24;99947.00;5033599;28;45238;-79
2022/02/14 10:07:49;;;;;;;;;2.00;1.00;;;;;11.69;63.27;99945.47;5013175;28;45444;-79
2022/02/14 10:10:18;;;;;;;;;1.00;1.00;;;;;10.82;62.90;99798.38;5012594;28;47397;-80
2022/02/14 10:12:51;;;;;;;;;1.00;1.00;;;;;11.43;62.26;99892.34;5031889;28;45385;-79
2022/02/14 10:15:17;;;;;;;;;2.50;1.75;;;;;11.78;62.10;99957.03;5013497;28;45566;-80
2022/02/14 10:17:48;;;;;;;;;1.75;0.25;;;;;11.81;62.00;99958.81;5016352;28;45227;-80
2022/02/14 10:20:16;;;;;;;;;1.00;1.00;;;;;11.82;62.06;99964.16;5047869;28;45951;-80
2022/02/14 10:23:02;;;;;;;;;3.50;2.00;;;;;11.86;61.70;99959.81;5047935;28;45179;-80
2022/02/14 10:25:34;;;;;;;;;2.50;2.00;;;;;11.93;61.81;99966.97;5039834;28;45705;-79
2022/02/14 10:28:21;;;;;;;;;3.50;2.00;;;;;11.97;61.48;99978.41;5037964;28;45363;-80
2022/02/14 10:31:07;;;;;;;;;2.00;2.00;;;;;11.90;61.31;99971.28;5024486;28;47400;-80
2022/02/14 10:33:56;;;;;;;;;1.00;1.00;;;;;12.05;61.82;99977.69;5022924;28;45578;-81
2022/02/14 10:36:29;;;;;;;;;2.00;2.00;;;;;12.18;60.98;99978.78;5010908;28;45866;-79
2022/02/14 10:39:10;;;;;;;;;1.25;1.00;;;;;12.23;60.97;99973.59;5028520;28;45641;-79
2022/02/14 10:41:35;;;;;;;;;0.75;0.75;;;;;12.42;60.88;99983.53;5028759;28;46440;-80
2022/02/14 10:44:08;;;;;;;;;1.25;1.25;;;;;12.29;60.47;99918.34;5029019;28;45543;-80
2022/02/14 10:46:34;;;;;;;;;3.25;1.00;;;;;12.56;59.97;99952.09;5029716;28;45407;-80
2022/02/14 10:49:02;;;;;;;;;1.00;1.00;;;;;12.70;59.81;99965.47;5028847;28;45824;-79
2022/02/14 10:51:28;;;;;;;;;2.00;2.00;;;;;12.50;59.64;99944.09;5032434;28;46226;-80
2022/02/14 10:53:55;;;;;;;;;1.00;1.00;;;;;12.43;59.51;99924.69;5033084;28;45276;-80
2022/02/14 10:56:22;;;;;;;;;2.00;1.00;;;;;12.17;59.36;99879.56;5032780;28;45481;-80
2022/02/14 10:58:49;;;;;;;;;2.25;1.00;;;;;12.51;59.22;99936.25;5033047;28;45539;-80
2022/02/14 11:01:16;;;;;;;;;1.00;1.00;;;;;12.72;59.23;99967.28;5031777;28;46482;-79
2022/02/14 11:03:43;;;;;;;;;1.00;1.00;;;;;12.52;58.93;99916.03;5014557;28;45851;-79
2022/02/14 11:06:11;;;;;;;;;1.25;1.00;;;;;12.73;58.63;99966.41;5032561;28;45512;-79
2022/02/14 11:08:38;;;;;;;;;1.25;1.00;;;;;12.37;59.11;99899.16;5032933;28;45483;-80
2022/02/14 11:11:07;;;;;;;;;2.50;1.00;;;;;12.89;58.90;99959.56;5032127;28;46584;-80
2022/02/14 11:13:33;;;;;;;;;2.50;1.00;;;;;12.65;58.59;99881.91;5039120;28;45736;-81
2022/02/14 11:16:00;;;;;;;;;1.75;1.00;;;;;13.29;58.15;99966.22;5036185;28;45475;-80
2022/02/14 11:18:31;;;;;;;;;2.00;1.00;;;;;13.44;57.89;99952.31;5036338;28;45645;-80
2022/02/14 11:21:00;;;;;;;;;1.00;1.00;;;;;13.11;57.50;99866.63;5022189;28;47383;-80
2022/02/14 11:23:33;;;;;;;;;3.00;3.00;;;;;13.41;57.11;99921.50;5020255;28;45797;-79
2022/02/14 11:26:13;;;;;;;;;1.50;1.25;;;;;13.33;56.71;99915.25;5036740;28;45428;-80
2022/02/14 11:29:13;;;;;;;;;2.25;2.00;;;;;13.40;56.56;99964.59;5037925;28;45420;-80
2022/02/14 11:31:39;;;;;;;;;2.75;2.50;;;;;12.98;56.11;99945.63;5036888;28;45401;-80
2022/02/14 11:34:05;;;;;;;;;3.25;2.00;;;;;12.77;56.62;99960.31;5037165;28;45459;-80